Time;durP1;ratioP1;P1;durP2;ratioP2;P2;SDS_P1;SDS_P2;PMS_P1;PMS_P2;Temp;Humidity;BMP_temperature;BMP_pressure;BME280_temperature;BME280_humidity;BME280_pressure;Samples;Min_cycle;Max_cycle;Signal;HPM_P1;HPM_P2
2022/01/11 00:01:15;;;;;;;18.77;15.33;;;;;;;;;;5053975;28;20029;-55
2022/01/11 00:03:42;;;;;;;23.63;15.97;;;;;;;;;;5034405;28;20121;-54
2022/01/11 00:06:28;;;;;;;18.23;14.37;;;;;;;;;;5033987;28;20037;-53
2022/01/11 00:08:59;;;;;;;21.43;15.10;;;;;;;;;;5033924;28;20091;-51
2022/01/11 00:11:25;;;;;;;19.17;15.87;;;;;;;;;;5034535;28;20030;-54
2022/01/11 00:13:52;;;;;;;20.77;15.33;;;;;;;;;;5034533;28;20030;-56
2022/01/11 00:16:18;;;;;;;19.50;14.67;;;;;;;;;;5034651;28;20060;-53
2022/01/11 00:18:44;;;;;;;20.93;14.93;;;;;;;;;;5034041;28;20064;-54
2022/01/11 00:21:11;;;;;;;29.47;16.17;;;;;;;;;;5034370;28;20029;-54
2022/01/11 00:26:03;;;;;;;21.63;14.53;;;;;;;;;;5034396;28;20061;-56
2022/01/11 00:28:30;;;;;;;20.23;14.43;;;;;;;;;;5033869;28;20439;-55
2022/01/11 00:30:56;;;;;;;16.90;14.73;;;;;;;;;;5034528;28;20030;-56
2022/01/11 00:33:30;;;;;;;20.17;13.63;;;;;;;;;;5034245;28;20032;-54
2022/01/11 00:35:59;;;;;;;19.30;13.20;;;;;;;;;;5034044;28;20474;-53
2022/01/11 00:38:26;;;;;;;22.13;14.60;;;;;;;;;;5050484;28;20040;-53
2022/01/11 00:40:54;;;;;;;24.87;14.77;;;;;;;;;;5053957;28;20434;-51
2022/01/11 00:43:21;;;;;;;26.10;18.27;;;;;;;;;;5053958;28;20390;-54
2022/01/11 00:45:47;;;;;;;20.57;15.33;;;;;;;;;;5054027;28;20025;-54
2022/01/11 00:48:14;;;;;;;23.83;16.30;;;;;;;;;;5053276;28;20449;-56
2022/01/11 00:50:40;;;;;;;30.97;16.97;;;;;;;;;;5052668;28;20426;-52
2022/01/11 00:53:08;;;;;;;26.93;15.33;;;;;;;;;;5053566;28;20032;-54
2022/01/11 00:55:34;;;;;;;29.47;16.43;;;;;;;;;;5053917;28;20087;-52
2022/01/11 00:58:02;;;;;;;27.20;17.40;;;;;;;;;;5052983;28;20087;-54
2022/01/11 01:00:28;;;;;;;21.03;16.23;;;;;;;;;;5053882;28;20036;-55
2022/01/11 01:02:54;;;;;;;22.37;16.27;;;;;;;;;;5039156;28;20080;-56
2022/01/11 01:05:21;;;;;;;20.17;14.80;;;;;;;;;;5033508;28;20379;-55
2022/01/11 01:07:47;;;;;;;27.57;16.00;;;;;;;;;;5032923;28;20439;-56
2022/01/11 01:10:56;;;;;;;23.40;16.73;;;;;;;;;;5033560;28;20422;-53
2022/01/11 01:13:04;;;;;;;19.67;15.97;;;;;;;;;;5035658;28;20056;-54
2022/01/11 01:15:34;;;;;;;22.47;14.87;;;;;;;;;;5033318;28;20425;-56
2022/01/11 01:18:00;;;;;;;21.87;15.23;;;;;;;;;;5032503;28;20467;-54
2022/01/11 01:20:26;;;;;;;17.90;14.80;;;;;;;;;;5033681;28;20064;-56
2022/01/11 01:22:52;;;;;;;19.93;15.93;;;;;;;;;;5033614;28;20452;-54
2022/01/11 01:25:20;;;;;;;27.13;18.30;;;;;;;;;;5033262;28;20025;-55
2022/01/11 01:27:47;;;;;;;27.40;16.20;;;;;;;;;;5032614;28;20102;-56
2022/01/11 01:30:13;;;;;;;20.77;14.57;;;;;;;;;;5033280;28;20039;-54
2022/01/11 01:32:39;;;;;;;21.77;15.40;;;;;;;;;;5032821;28;20092;-52
2022/01/11 01:35:05;;;;;;;22.70;16.07;;;;;;;;;;5033215;28;20087;-54
2022/01/11 01:37:32;;;;;;;22.27;16.17;;;;;;;;;;5042410;28;20055;-54
2022/01/11 01:39:58;;;;;;;22.73;16.20;;;;;;;;;;5052623;28;20419;-54
2022/01/11 01:42:27;;;;;;;22.60;15.83;;;;;;;;;;5052657;28;20033;-54
2022/01/11 01:44:53;;;;;;;28.17;17.70;;;;;;;;;;5053202;28;20421;-53
2022/01/11 01:47:20;;;;;;;25.97;17.60;;;;;;;;;;5052601;28;20033;-50
2022/01/11 01:49:46;;;;;;;22.00;14.13;;;;;;;;;;5052240;28;20025;-54
2022/01/11 01:52:14;;;;;;;21.90;16.67;;;;;;;;;;5052408;28;20116;-55
2022/01/11 01:54:40;;;;;;;25.30;16.33;;;;;;;;;;5052736;28;20086;-53
2022/01/11 01:57:06;;;;;;;23.07;18.17;;;;;;;;;;5052502;28;20036;-54
2022/01/11 01:59:32;;;;;;;19.33;14.73;;;;;;;;;;5051791;28;20489;-55
2022/01/11 02:01:58;;;;;;;28.00;17.50;;;;;;;;;;5045630;28;20109;-54
2022/01/11 02:04:24;;;;;;;26.20;18.43;;;;;;;;;;5032479;28;20430;-56
2022/01/11 02:06:50;;;;;;;25.87;17.13;;;;;;;;;;5032734;28;20075;-53
2022/01/11 02:09:17;;;;;;;20.87;16.57;;;;;;;;;;5032167;28;20163;-54
2022/01/11 02:11:43;;;;;;;24.67;14.90;;;;;;;;;;5032355;28;20434;-55
2022/01/11 02:14:09;;;;;;;21.10;17.33;;;;;;;;;;5032413;28;20449;-51
2022/01/11 02:16:35;;;;;;;26.60;17.30;;;;;;;;;;5032276;28;20033;-50
2022/01/11 02:19:02;;;;;;;20.43;14.37;;;;;;;;;;5031887;28;20030;-53
2022/01/11 02:21:28;;;;;;;22.37;15.37;;;;;;;;;;5032553;28;20379;-55
2022/01/11 02:23:54;;;;;;;25.77;17.37;;;;;;;;;;5032048;28;20103;-56
2022/01/11 02:26:21;;;;;;;22.33;16.27;;;;;;;;;;5032412;28;20025;-56
2022/01/11 02:28:47;;;;;;;23.80;15.87;;;;;;;;;;5031007;28;20112;-51
2022/01/11 02:31:13;;;;;;;26.33;18.90;;;;;;;;;;5032415;28;20025;-54
2022/01/11 02:33:42;;;;;;;31.30;15.50;;;;;;;;;;5032309;28;20108;-56
2022/01/11 02:36:11;;;;;;;28.67;18.33;;;;;;;;;;5032147;28;20441;-56
2022/01/11 02:38:37;;;;;;;23.97;16.30;;;;;;;;;;5049976;28;20029;-54
2022/01/11 02:41:04;;;;;;;24.07;16.37;;;;;;;;;;5051956;28;20047;-50
2022/01/11 02:43:30;;;;;;;20.10;14.30;;;;;;;;;;5051536;28;20371;-55
2022/01/11 02:45:58;;;;;;;26.63;17.10;;;;;;;;;;5051863;28;20524;-55
2022/01/11 02:48:24;;;;;;;27.53;16.23;;;;;;;;;;5051261;28;20394;-53
2022/01/11 02:50:56;;;;;;;27.93;18.90;;;;;;;;;;5051856;28;20459;-53
2022/01/11 02:53:22;;;;;;;22.20;16.53;;;;;;;;;;5051833;28;20103;-55
2022/01/11 02:55:48;;;;;;;17.43;15.43;;;;;;;;;;5051818;28;20459;-50
2022/01/11 02:58:14;;;;;;;25.40;17.27;;;;;;;;;;5050779;28;20477;-55
2022/01/11 03:00:40;;;;;;;23.60;17.00;;;;;;;;;;5052040;28;20029;-54
2022/01/11 03:03:09;;;;;;;25.57;18.60;;;;;;;;;;5035617;28;20029;-52
2022/01/11 03:05:35;;;;;;;25.83;19.17;;;;;;;;;;5031779;28;20427;-53
2022/01/11 03:08:01;;;;;;;25.93;19.40;;;;;;;;;;5031302;28;20033;-52
2022/01/11 03:10:33;;;;;;;24.97;17.43;;;;;;;;;;5031723;28;20030;-53
2022/01/11 03:13:00;;;;;;;26.67;18.10;;;;;;;;;;5030529;28;20026;-56
2022/01/11 03:15:27;;;;;;;24.73;16.20;;;;;;;;;;5031772;28;20160;-53
2022/01/11 03:17:53;;;;;;;22.17;16.80;;;;;;;;;;5031095;28;20087;-54
2022/01/11 03:20:19;;;;;;;21.67;17.47;;;;;;;;;;5031711;28;20120;-51
2022/01/11 03:22:45;;;;;;;19.47;17.30;;;;;;;;;;5031900;28;20474;-52
2022/01/11 03:25:12;;;;;;;25.57;17.33;;;;;;;;;;5031281;28;20474;-50
2022/01/11 03:27:38;;;;;;;25.13;16.83;;;;;;;;;;5031583;28;20037;-53
2022/01/11 03:30:05;;;;;;;26.23;18.43;;;;;;;;;;5030931;28;20025;-50
2022/01/11 03:32:31;;;;;;;21.30;15.33;;;;;;;;;;5031669;28;20033;-56
2022/01/11 03:34:57;;;;;;;26.60;18.43;;;;;;;;;;5031411;28;20033;-51
2022/01/11 03:37:23;;;;;;;26.47;18.77;;;;;;;;;;5039886;28;20479;-53
2022/01/11 03:39:49;;;;;;;21.10;18.03;;;;;;;;;;5053101;28;20433;-50
2022/01/11 03:42:15;;;;;;;21.07;16.80;;;;;;;;;;5055360;28;20017;-52
2022/01/11 03:44:41;;;;;;;24.03;17.63;;;;;;;;;;5055036;28;20029;-53
2022/01/11 03:47:07;;;;;;;24.17;18.97;;;;;;;;;;5055061;28;20033;-50
2022/01/11 03:49:33;;;;;;;24.23;16.93;;;;;;;;;;5054523;28;20032;-54
2022/01/11 03:51:59;;;;;;;31.13;18.63;;;;;;;;;;5055004;28;20025;-53
2022/01/11 03:54:29;;;;;;;21.33;16.53;;;;;;;;;;5054606;28;20071;-54
2022/01/11 03:56:55;;;;;;;29.47;16.43;;;;;;;;;;5055131;28;20036;-50
2022/01/11 03:59:21;;;;;;;19.23;16.43;;;;;;;;;;5054072;28;20079;-54
2022/01/11 04:01:48;;;;;;;24.37;16.40;;;;;;;;;;5049361;28;20025;-55
2022/01/11 04:04:15;;;;;;;24.33;16.57;;;;;;;;;;5034849;28;20191;-52
2022/01/11 04:06:42;;;;;;;28.60;19.73;;;;;;;;;;5034727;28;20393;-55
2022/01/11 04:09:08;;;;;;;19.33;17.17;;;;;;;;;;5033956;28;20048;-56
2022/01/11 04:11:34;;;;;;;23.90;17.73;;;;;;;;;;5034850;28;20041;-55
2022/01/11 04:14:00;;;;;;;26.93;18.73;;;;;;;;;;5034412;28;20116;-54
2022/01/11 04:16:27;;;;;;;26.47;20.23;;;;;;;;;;5034683;28;20056;-50
2022/01/11 04:18:53;;;;;;;31.47;19.07;;;;;;;;;;5034140;28;20076;-56
2022/01/11 04:21:19;;;;;;;37.70;20.17;;;;;;;;;;5034505;28;20034;-53
2022/01/11 04:23:45;;;;;;;25.77;20.23;;;;;;;;;;5034443;28;20029;-54
2022/01/11 04:26:11;;;;;;;20.23;16.03;;;;;;;;;;5034603;28;20486;-52
2022/01/11 04:28:37;;;;;;;23.40;18.03;;;;;;;;;;5033920;28;20025;-52
2022/01/11 04:31:03;;;;;;;21.70;16.40;;;;;;;;;;5029026;28;20068;-53
2022/01/11 04:33:30;;;;;;;25.90;19.20;;;;;;;;;;5034147;28;20053;-55
2022/01/11 04:35:57;;;;;;;26.60;17.57;;;;;;;;;;5034363;28;20382;-54
2022/01/11 04:38:23;;;;;;;19.50;15.30;;;;;;;;;;5050360;28;20490;-56
2022/01/11 04:40:50;;;;;;;27.07;20.63;;;;;;;;;;5054257;28;20029;-54
2022/01/11 04:43:16;;;;;;;30.57;20.50;;;;;;;;;;5053995;28;20029;-53
2022/01/11 04:45:42;;;;;;;35.07;22.33;;;;;;;;;;5052934;28;20036;-52
2022/01/11 04:48:08;;;;;;;24.03;17.53;;;;;;;;;;5053095;28;20467;-52
2022/01/11 04:50:34;;;;;;;29.20;20.23;;;;;;;;;;5053205;28;20037;-52
2022/01/11 04:53:00;;;;;;;23.90;16.23;;;;;;;;;;5053762;28;20028;-54
2022/01/11 04:55:27;;;;;;;24.37;14.47;;;;;;;;;;5053537;28;20064;-53
2022/01/11 04:57:53;;;;;;;29.80;18.83;;;;;;;;;;5053277;28;20028;-54
2022/01/11 05:00:20;;;;;;;32.73;20.03;;;;;;;;;;5053845;28;20055;-55
2022/01/11 05:02:46;;;;;;;28.07;18.77;;;;;;;;;;5040266;28;20403;-55
2022/01/11 05:05:12;;;;;;;30.27;21.13;;;;;;;;;;5034719;28;20121;-53
2022/01/11 05:07:38;;;;;;;29.07;18.60;;;;;;;;;;5053776;28;20094;-54
2022/01/11 05:10:05;;;;;;;22.00;17.43;;;;;;;;;;5053100;28;20079;-55
2022/01/11 05:12:32;;;;;;;25.30;18.27;;;;;;;;;;5053604;28;20416;-51
2022/01/11 05:14:58;;;;;;;23.60;18.00;;;;;;;;;;5053403;28;20029;-54
2022/01/11 05:17:24;;;;;;;20.27;15.80;;;;;;;;;;5052781;28;20087;-53
2022/01/11 05:19:49;;;;;;;24.07;17.17;;;;;;;;;;5052592;28;20035;-51
2022/01/11 05:22:16;;;;;;;22.97;17.93;;;;;;;;;;5053562;28;20059;-54
2022/01/11 05:24:42;;;;;;;22.80;17.50;;;;;;;;;;5053432;28;20031;-51
2022/01/11 05:27:08;;;;;;;26.70;17.47;;;;;;;;;;5052892;28;20123;-55
2022/01/11 05:29:34;;;;;;;28.23;18.70;;;;;;;;;;5052652;28;20465;-54
2022/01/11 05:32:02;;;;;;;23.77;18.67;;;;;;;;;;5052823;28;20059;-54
2022/01/11 05:34:28;;;;;;;20.60;16.30;;;;;;;;;;5052803;28;20040;-50
2022/01/11 05:36:54;;;;;;;26.80;18.60;;;;;;;;;;5052866;28;20124;-51
2022/01/11 05:39:20;;;;;;;21.63;16.00;;;;;;;;;;5052622;28;20029;-54
2022/01/11 05:41:46;;;;;;;22.43;16.37;;;;;;;;;;5053046;28;20482;-50
2022/01/11 05:44:12;;;;;;;26.73;19.87;;;;;;;;;;5052944;28;20041;-51
2022/01/11 05:46:38;;;;;;;30.70;18.33;;;;;;;;;;5052224;28;20043;-54
2022/01/11 05:49:04;;;;;;;24.23;18.47;;;;;;;;;;5052137;28;20036;-50
2022/01/11 05:51:30;;;;;;;29.43;20.70;;;;;;;;;;5052978;28;20083;-56
2022/01/11 05:53:56;;;;;;;24.17;18.23;;;;;;;;;;5052732;28;20071;-52
2022/01/11 05:56:22;;;;;;;28.87;18.40;;;;;;;;;;5052310;28;20037;-54
2022/01/11 05:58:48;;;;;;;25.20;18.83;;;;;;;;;;5052388;28;20059;-51
2022/01/11 06:01:15;;;;;;;28.40;17.90;;;;;;;;;;5052368;28;20470;-53
2022/01/11 06:03:41;;;;;;;27.53;18.87;;;;;;;;;;5051626;28;20522;-54
2022/01/11 06:06:07;;;;;;;29.80;20.03;;;;;;;;;;5052050;28;20463;-54
2022/01/11 06:08:33;;;;;;;24.10;19.80;;;;;;;;;;5051988;28;20025;-51
2022/01/11 06:10:59;;;;;;;25.53;18.30;;;;;;;;;;5052588;28;20386;-54
2022/01/11 06:13:25;;;;;;;24.73;19.63;;;;;;;;;;5052173;28;20036;-51
2022/01/11 06:15:52;;;;;;;23.40;17.67;;;;;;;;;;5051994;28;20055;-54
2022/01/11 06:18:18;;;;;;;23.93;17.17;;;;;;;;;;5045062;28;20033;-51
2022/01/11 06:20:44;;;;;;;25.17;19.67;;;;;;;;;;5046098;28;20029;-52
2022/01/11 06:23:11;;;;;;;27.37;16.93;;;;;;;;;;5035930;28;20039;-53
2022/01/11 06:25:37;;;;;;;24.97;18.73;;;;;;;;;;5051825;28;20033;-51
2022/01/11 06:28:03;;;;;;;32.63;20.50;;;;;;;;;;5050425;28;20028;-53
2022/01/11 06:30:29;;;;;;;19.93;16.93;;;;;;;;;;5051462;28;20191;-51
2022/01/11 06:32:56;;;;;;;26.20;18.43;;;;;;;;;;5048994;28;20029;-52
2022/01/11 06:35:22;;;;;;;33.10;19.03;;;;;;;;;;5051319;28;20053;-53
2022/01/11 06:37:49;;;;;;;21.37;15.77;;;;;;;;;;5050662;28;20493;-54
2022/01/11 06:40:16;;;;;;;19.13;16.17;;;;;;;;;;5051016;28;20478;-53
2022/01/11 06:42:43;;;;;;;30.13;19.77;;;;;;;;;;5051000;28;20033;-53
2022/01/11 06:45:09;;;;;;;28.43;20.03;;;;;;;;;;5050890;28;20032;-51
2022/01/11 06:47:35;;;;;;;23.17;19.07;;;;;;;;;;5051277;28;20052;-53
2022/01/11 06:50:01;;;;;;;33.07;19.10;;;;;;;;;;5050000;28;20031;-54
2022/01/11 06:52:27;;;;;;;25.47;19.47;;;;;;;;;;5049871;28;20103;-51
2022/01/11 06:54:53;;;;;;;29.63;18.90;;;;;;;;;;5051111;28;20040;-54
2022/01/11 06:57:19;;;;;;;21.90;17.33;;;;;;;;;;5050009;28;20087;-54
2022/01/11 06:59:45;;;;;;;25.47;17.23;;;;;;;;;;5050246;28;20028;-48
2022/01/11 07:02:11;;;;;;;21.47;17.20;;;;;;;;;;5042745;28;20244;-52
2022/01/11 07:04:37;;;;;;;24.57;19.00;;;;;;;;;;5048398;28;20033;-49
2022/01/11 07:07:04;;;;;;;25.50;19.33;;;;;;;;;;5051247;28;20033;-50
2022/01/11 07:09:30;;;;;;;26.83;17.67;;;;;;;;;;5050318;28;20025;-51
2022/01/11 07:11:56;;;;;;;24.47;17.37;;;;;;;;;;5050608;28;20390;-54
2022/01/11 07:14:22;;;;;;;25.33;17.37;;;;;;;;;;5052478;28;20021;-50
2022/01/11 07:16:48;;;;;;;25.37;18.40;;;;;;;;;;5054570;28;20044;-53
2022/01/11 07:19:18;;;;;;;24.83;17.43;;;;;;;;;;5054103;28;20092;-53
2022/01/11 07:21:44;;;;;;;28.17;19.67;;;;;;;;;;5054494;28;20391;-55
2022/01/11 07:24:11;;;;;;;18.33;16.50;;;;;;;;;;5054957;28;20067;-54
2022/01/11 07:26:36;;;;;;;22.07;17.33;;;;;;;;;;5051746;28;20056;-55
2022/01/11 07:29:05;;;;;;;27.87;19.30;;;;;;;;;;5054222;28;20071;-52
2022/01/11 07:31:31;;;;;;;21.93;16.00;;;;;;;;;;5055071;28;20506;-54
2022/01/11 07:33:57;;;;;;;22.37;18.07;;;;;;;;;;5052737;28;20029;-55
2022/01/11 07:36:23;;;;;;;26.67;15.90;;;;;;;;;;5054940;28;20140;-53
2022/01/11 07:38:51;;;;;;;20.20;16.70;;;;;;;;;;5053602;28;20033;-51
2022/01/11 07:41:17;;;;;;;22.93;16.63;;;;;;;;;;5054197;28;20029;-54
2022/01/11 07:43:43;;;;;;;23.97;17.57;;;;;;;;;;5054678;28;20032;-51
2022/01/11 07:46:09;;;;;;;25.07;16.17;;;;;;;;;;5054133;28;20057;-52
2022/01/11 07:48:35;;;;;;;20.10;15.23;;;;;;;;;;5053832;28;20037;-56
2022/01/11 07:51:01;;;;;;;17.47;14.70;;;;;;;;;;5055035;28;20029;-52
2022/01/11 07:53:27;;;;;;;25.60;16.73;;;;;;;;;;5053010;28;20028;-55
2022/01/11 07:55:53;;;;;;;21.17;16.43;;;;;;;;;;5053615;28;20025;-55
2022/01/11 07:58:19;;;;;;;30.43;17.97;;;;;;;;;;5053306;28;20429;-55
2022/01/11 08:00:45;;;;;;;23.00;16.43;;;;;;;;;;5054400;28;20033;-54
2022/01/11 08:03:11;;;;;;;21.00;15.97;;;;;;;;;;5042044;28;20021;-54
2022/01/11 08:05:37;;;;;;;22.37;16.53;;;;;;;;;;5052957;28;20021;-56
2022/01/11 08:08:03;;;;;;;19.20;15.53;;;;;;;;;;5053061;28;20040;-55
2022/01/11 08:10:29;;;;;;;19.20;13.10;;;;;;;;;;5054341;28;20032;-57
2022/01/11 08:12:55;;;;;;;18.73;15.70;;;;;;;;;;5053582;28;20459;-56
2022/01/11 08:15:21;;;;;;;18.93;15.30;;;;;;;;;;5054301;28;20029;-56
2022/01/11 08:17:47;;;;;;;23.33;16.10;;;;;;;;;;5053102;28;20037;-53
2022/01/11 08:20:14;;;;;;;25.97;17.67;;;;;;;;;;5053617;28;20052;-55
2022/01/11 08:22:40;;;;;;;25.67;16.97;;;;;;;;;;5053976;28;20056;-55
2022/01/11 08:25:06;;;;;;;25.07;17.33;;;;;;;;;;5053360;28;20517;-55
2022/01/11 08:27:33;;;;;;;22.87;17.97;;;;;;;;;;5052462;28;20037;-55
2022/01/11 08:29:59;;;;;;;17.73;15.77;;;;;;;;;;5043225;28;20071;-55
2022/01/11 08:32:25;;;;;;;21.53;17.50;;;;;;;;;;5049836;28;20057;-53
2022/01/11 08:34:51;;;;;;;25.17;18.30;;;;;;;;;;5053916;28;20065;-52
2022/01/11 08:37:18;;;;;;;26.53;17.07;;;;;;;;;;5049839;28;20429;-54
2022/01/11 08:39:44;;;;;;;21.20;16.43;;;;;;;;;;5052645;28;20025;-55
2022/01/11 08:42:14;;;;;;;18.20;15.33;;;;;;;;;;5053099;28;20087;-53
2022/01/11 08:44:40;;;;;;;16.70;14.37;;;;;;;;;;5052835;28;20450;-52
2022/01/11 08:47:07;;;;;;;24.83;16.73;;;;;;;;;;5051466;28;20124;-54
2022/01/11 08:49:33;;;;;;;22.70;16.43;;;;;;;;;;5048223;28;20025;-52
2022/01/11 08:51:59;;;;;;;25.33;16.00;;;;;;;;;;5051446;28;20036;-55
2022/01/11 08:54:25;;;;;;;23.00;15.13;;;;;;;;;;5051710;28;20036;-54
2022/01/11 08:56:54;;;;;;;29.00;16.83;;;;;;;;;;5052895;28;20033;-56
2022/01/11 08:59:20;;;;;;;24.60;18.57;;;;;;;;;;5050856;28;20037;-53
2022/01/11 09:01:46;;;;;;;20.13;17.97;;;;;;;;;;5046982;28;20529;-54
2022/01/11 09:04:12;;;;;;;21.17;17.60;;;;;;;;;;5051484;28;20032;-53
2022/01/11 09:06:38;;;;;;;21.00;17.87;;;;;;;;;;5050029;28;20039;-53
2022/01/11 09:09:04;;;;;;;20.77;16.70;;;;;;;;;;5050442;28;20025;-53
2022/01/11 09:11:30;;;;;;;24.63;17.23;;;;;;;;;;5051730;28;20300;-54
2022/01/11 09:13:56;;;;;;;23.17;16.20;;;;;;;;;;5051919;28;20047;-52
2022/01/11 09:16:24;;;;;;;22.30;17.40;;;;;;;;;;5052363;28;20483;-52
2022/01/11 09:18:50;;;;;;;20.20;15.73;;;;;;;;;;5052298;28;20471;-55
2022/01/11 09:21:16;;;;;;;20.50;16.17;;;;;;;;;;5051701;28;20376;-52
2022/01/11 09:23:42;;;;;;;25.07;16.63;;;;;;;;;;5052308;28;20134;-51
2022/01/11 09:26:08;;;;;;;24.93;17.27;;;;;;;;;;5052449;28;20024;-52
2022/01/11 09:28:34;;;;;;;19.67;15.90;;;;;;;;;;5051686;28;20044;-55
2022/01/11 09:31:00;;;;;;;20.53;16.30;;;;;;;;;;5052221;28;20021;-52
2022/01/11 09:33:26;;;;;;;21.07;16.93;;;;;;;;;;5051963;28;20028;-51
2022/01/11 09:35:52;;;;;;;16.33;13.73;;;;;;;;;;5051908;28;20466;-55
2022/01/11 09:38:18;;;;;;;18.67;13.53;;;;;;;;;;5050989;28;20072;-56
2022/01/11 09:40:44;;;;;;;16.30;14.60;;;;;;;;;;5052621;28;20072;-55
2022/01/11 09:43:11;;;;;;;19.20;14.67;;;;;;;;;;5052136;28;20459;-51
2022/01/11 09:45:37;;;;;;;19.47;15.27;;;;;;;;;;5052302;28;20036;-55
2022/01/11 09:48:03;;;;;;;16.20;14.00;;;;;;;;;;5051623;28;20498;-54
2022/01/11 09:50:29;;;;;;;18.30;15.83;;;;;;;;;;5052236;28;20121;-55
2022/01/11 09:52:56;;;;;;;21.37;15.67;;;;;;;;;;5052269;28;20107;-54
2022/01/11 09:55:22;;;;;;;22.73;17.00;;;;;;;;;;5052692;28;20040;-55
2022/01/11 09:57:49;;;;;;;19.00;15.70;;;;;;;;;;5051468;28;20045;-55
2022/01/11 10:00:15;;;;;;;21.20;14.77;;;;;;;;;;5050941;28;20267;-49
2022/01/11 10:02:42;;;;;;;17.93;14.80;;;;;;;;;;5051800;28;20036;-54
2022/01/11 10:05:09;;;;;;;21.73;16.73;;;;;;;;;;5051227;28;20087;-53
2022/01/11 10:07:40;;;;;;;18.70;13.77;;;;;;;;;;5051639;28;20036;-55
2022/01/11 10:10:10;;;;;;;19.73;13.70;;;;;;;;;;5051776;28;20056;-52
2022/01/11 10:12:44;;;;;;;15.82;13.35;;;;;;;;;;5051857;28;20033;-56
2022/01/11 10:15:10;;;;;;;20.23;13.47;;;;;;;;;;5045576;28;20098;-53
2022/01/11 10:17:45;;;;;;;22.77;14.87;;;;;;;;;;5051597;28;20379;-55
2022/01/11 10:20:21;;;;;;;21.40;12.90;;;;;;;;;;5051276;28;20052;-54
2022/01/11 10:22:52;;;;;;;25.03;15.57;;;;;;;;;;5052085;28;20024;-56
2022/01/11 10:25:18;;;;;;;;;;;;;;;;;;5052128;28;20032;-56
2022/01/11 10:27:46;;;;;;;16.10;13.33;;;;;;;;;;5051399;28;20298;-55
2022/01/11 10:30:13;;;;;;;17.70;14.77;;;;;;;;;;5036195;28;20039;-52
2022/01/11 10:32:39;;;;;;;17.33;12.32;;;;;;;;;;5051455;28;20036;-51
2022/01/11 10:35:08;;;;;;;18.77;13.10;;;;;;;;;;5051061;28;20128;-55
2022/01/11 10:37:34;;;;;;;23.17;14.50;;;;;;;;;;5041282;28;20061;-54
2022/01/11 10:40:01;;;;;;;16.97;12.10;;;;;;;;;;5051166;28;20493;-55
2022/01/11 10:42:32;;;;;;;14.67;11.77;;;;;;;;;;5051238;28;20428;-52
2022/01/11 10:44:59;;;;;;;16.42;13.57;;;;;;;;;;5046876;28;20469;-55
2022/01/11 10:47:29;;;;;;;17.13;11.27;;;;;;;;;;5050112;28;20172;-56
2022/01/11 10:49:57;;;;;;;12.18;10.73;;;;;;;;;;5049001;28;20037;-53
2022/01/11 10:52:25;;;;;;;17.00;10.23;;;;;;;;;;5051610;28;20029;-54
2022/01/11 10:54:51;;;;;;;20.70;10.13;;;;;;;;;;5051239;28;20056;-53
2022/01/11 10:57:28;;;;;;;15.73;10.10;;;;;;;;;;5051340;28;20056;-53
2022/01/11 11:00:05;;;;;;;16.43;10.93;;;;;;;;;;5050215;28;20028;-54
2022/01/11 11:02:31;;;;;;;12.77;9.70;;;;;;;;;;5051321;28;20028;-55
2022/01/11 11:05:00;;;;;;;14.03;10.70;;;;;;;;;;5050567;28;20029;-56
2022/01/11 11:07:27;;;;;;;11.20;9.93;;;;;;;;;;5042820;28;20078;-54
2022/01/11 11:09:54;;;;;;;14.82;8.63;;;;;;;;;;5049459;28;20490;-54
2022/01/11 11:12:24;;;;;;;14.40;10.80;;;;;;;;;;5036827;28;20388;-51
2022/01/11 11:14:54;;;;;;;17.75;9.57;;;;;;;;;;5050944;28;20025;-54
2022/01/11 11:17:28;;;;;;;12.95;9.52;;;;;;;;;;5051275;28;20028;-53
2022/01/11 11:20:01;;;;;;;9.77;8.77;;;;;;;;;;5050887;28;20032;-56
2022/01/11 11:22:28;;;;;;;12.38;9.75;;;;;;;;;;5051240;28;20104;-55
2022/01/11 11:24:54;;;;;;;12.00;9.60;;;;;;;;;;5051297;28;20056;-50
2022/01/11 11:27:21;;;;;;;15.73;9.02;;;;;;;;;;5051025;28;20021;-56
2022/01/11 11:29:48;;;;;;;13.45;8.88;;;;;;;;;;5050020;28;20104;-55
2022/01/11 11:32:19;;;;;;;9.23;7.75;;;;;;;;;;5045215;28;20404;-54
2022/01/11 11:34:49;;;;;;;12.63;9.20;;;;;;;;;;5050557;28;20029;-55
2022/01/11 11:37:17;;;;;;;10.70;6.68;;;;;;;;;;5049429;28;20025;-56
2022/01/11 11:39:43;;;;;;;9.38;6.40;;;;;;;;;;5050661;28;20029;-55
2022/01/11 11:42:14;;;;;;;6.55;5.00;;;;;;;;;;5040957;28;20391;-51
2022/01/11 11:44:44;;;;;;;7.90;6.35;;;;;;;;;;5049182;28;20079;-55
2022/01/11 11:47:11;;;;;;;7.68;4.20;;;;;;;;;;5048983;28;20029;-53
2022/01/11 11:49:45;;;;;;;4.83;3.10;;;;;;;;;;5050777;28;20067;-54
2022/01/11 11:52:17;;;;;;;5.37;3.20;;;;;;;;;;5051311;28;20037;-55
2022/01/11 11:55:00;;;;;;;5.30;3.27;;;;;;;;;;5050967;28;20025;-53
2022/01/11 11:57:31;;;;;;;5.53;3.67;;;;;;;;;;5050434;28;20453;-54
2022/01/11 11:59:57;;;;;;;;;;;;;;;;;;5042089;28;20042;-57
2022/01/11 12:02:35;;;;;;;4.70;2.70;;;;;;;;;;5053270;28;20407;-56
2022/01/11 12:05:04;;;;;;;2.97;2.10;;;;;;;;;;5050346;28;20033;-54
2022/01/11 12:07:37;;;;;;;4.32;2.88;;;;;;;;;;5054518;28;20414;-53
2022/01/11 12:10:06;;;;;;;3.60;2.20;;;;;;;;;;5051302;28;20044;-54
2022/01/11 12:12:41;;;;;;;4.03;2.50;;;;;;;;;;5051682;28;20048;-53
2022/01/11 12:15:22;;;;;;;5.03;2.60;;;;;;;;;;5053810;28;20079;-56
2022/01/11 12:17:57;;;;;;;5.82;2.75;;;;;;;;;;5051599;28;20037;-55
2022/01/11 12:20:42;;;;;;;5.00;2.77;;;;;;;;;;5054145;28;20284;-55
2022/01/11 12:23:13;;;;;;;4.03;2.70;;;;;;;;;;5054330;28;20025;-56
2022/01/11 12:25:43;;;;;;;5.13;3.37;;;;;;;;;;5053475;28;20013;-53
2022/01/11 12:28:16;;;;;;;4.20;2.60;;;;;;;;;;5051443;28;20508;-54
2022/01/11 12:30:42;;;;;;;5.72;3.78;;;;;;;;;;5049710;28;20502;-55
2022/01/11 12:33:10;;;;;;;5.65;3.30;;;;;;;;;;5053709;28;20104;-50
2022/01/11 12:35:52;;;;;;;5.00;3.08;;;;;;;;;;5053490;28;20029;-54
2022/01/11 12:38:18;;;;;;;4.80;2.85;;;;;;;;;;5049171;28;20033;-54
2022/01/11 12:40:45;;;;;;;5.37;3.57;;;;;;;;;;5051900;28;20087;-54
2022/01/11 12:43:19;;;;;;;4.57;3.58;;;;;;;;;;5047246;28;20025;-52
2022/01/11 12:46:03;;;;;;;7.95;2.80;;;;;;;;;;5053407;28;20143;-55
2022/01/11 12:48:45;;;;;;;5.70;2.80;;;;;;;;;;5052622;28;20082;-54
2022/01/11 12:51:31;;;;;;;6.85;3.72;;;;;;;;;;5053376;28;20033;-56
2022/01/11 12:54:15;;;;;;;4.50;2.47;;;;;;;;;;5053409;28;20029;-56
2022/01/11 12:56:42;;;;;;;2.70;2.20;;;;;;;;;;5053260;28;20036;-52
2022/01/11 12:59:08;;;;;;;9.27;2.77;;;;;;;;;;5050977;28;20025;-53
2022/01/11 13:01:34;;;;;;;5.20;2.87;;;;;;;;;;5051785;28;20028;-53
2022/01/11 13:04:02;;;;;;;4.33;2.67;;;;;;;;;;5053337;28;20474;-53
2022/01/11 13:06:29;;;;;;;3.97;2.47;;;;;;;;;;5052501;28;20036;-56
2022/01/11 13:08:55;;;;;;;5.20;3.20;;;;;;;;;;5052068;28;20080;-54
2022/01/11 13:11:22;;;;;;;4.60;2.95;;;;;;;;;;5052439;28;20463;-55
2022/01/11 13:13:56;;;;;;;5.28;3.45;;;;;;;;;;5052749;28;20068;-55
2022/01/11 13:16:27;;;;;;;4.57;2.60;;;;;;;;;;5052342;28;20033;-51
2022/01/11 13:18:53;;;;;;;3.83;3.03;;;;;;;;;;5052270;28;20035;-56
2022/01/11 13:21:22;;;;;;;6.53;3.27;;;;;;;;;;5053203;28;20029;-56
2022/01/11 13:26:23;;;;;;;5.85;3.97;;;;;;;;;;5053046;28;20521;-51
2022/01/11 13:28:52;;;;;;;6.15;4.15;;;;;;;;;;5051821;28;20029;-54
2022/01/11 13:31:20;;;;;;;6.88;4.78;;;;;;;;;;5051948;28;20041;-56
2022/01/11 13:33:48;;;;;;;7.73;4.47;;;;;;;;;;5052346;28;20415;-56
2022/01/11 13:36:21;;;;;;;6.10;4.07;;;;;;;;;;5052686;28;20025;-56
2022/01/11 13:38:49;;;;;;;6.70;3.58;;;;;;;;;;5041010;28;20037;-54
2022/01/11 13:41:15;;;;;;;4.40;3.60;;;;;;;;;;5052445;28;20036;-55
2022/01/11 13:43:42;;;;;;;7.25;4.00;;;;;;;;;;5051943;28;20467;-53
2022/01/11 13:46:21;;;;;;;6.53;3.80;;;;;;;;;;5051952;28;20036;-55
2022/01/11 13:48:48;;;;;;;7.97;4.03;;;;;;;;;;5051999;28;20029;-56
2022/01/11 13:51:15;;;;;;;5.70;3.87;;;;;;;;;;5051384;28;20048;-55
2022/01/11 13:53:41;;;;;;;7.83;4.33;;;;;;;;;;5052018;28;20033;-54
2022/01/11 13:56:07;;;;;;;8.07;4.33;;;;;;;;;;5051124;28;20494;-56
2022/01/11 13:58:38;;;;;;;7.13;4.23;;;;;;;;;;5051065;28;20037;-53
2022/01/11 14:01:04;;;;;;;5.38;3.75;;;;;;;;;;5051217;28;20031;-56
2022/01/11 14:03:31;;;;;;;5.53;3.38;;;;;;;;;;5050464;28;20494;-53
2022/01/11 14:05:57;;;;;;;4.90;3.83;;;;;;;;;;5051353;28;20021;-56
2022/01/11 14:08:30;;;;;;;7.60;3.50;;;;;;;;;;5050859;28;20074;-56
2022/01/11 14:11:06;;;;;;;6.15;3.35;;;;;;;;;;5051404;28;20394;-54
2022/01/11 14:13:32;;;;;;;7.43;4.80;;;;;;;;;;5051232;28;20025;-53
2022/01/11 14:15:58;;;;;;;6.60;3.90;;;;;;;;;;5051290;28;20108;-55
2022/01/11 14:18:27;;;;;;;6.10;3.50;;;;;;;;;;5049118;28;20032;-55
2022/01/11 14:21:07;;;;;;;5.23;2.87;;;;;;;;;;5051104;28;20136;-54
2022/01/11 14:23:34;;;;;;;4.40;3.00;;;;;;;;;;5040414;28;20028;-54
2022/01/11 14:26:00;;;;;;;6.27;4.30;;;;;;;;;;5050049;28;20070;-53
2022/01/11 14:28:28;;;;;;;5.77;3.53;;;;;;;;;;5048944;28;20025;-56
2022/01/11 14:31:01;;;;;;;5.33;3.73;;;;;;;;;;5050950;28;20017;-52